KDET/DET METAR and TAF weather

Enter ICAO airport designator
Station Type Date Time Source
KDET METAR 2021/06/22 23:53 UTC NOAA

KDET 222353Z VRB03KT 10SM FEW070 SCT085 BKN100 17/08 A2999 RMK AO2 SLP155 T01670083 10206 20161 51008


Station Type Date Time Source
KDET Decoded METAR 2021/06/22 23:53 UTC NOAA

DETROIT CITY AIRPORT, MI, United States (KDET) 42-25N 083-01W 190M
Jun 22, 2021 - 07:53 PM EDT / 2021.06.22 2353 UTC
Wind: Variable at 3 MPH (3 KT):0
Visibility: 10 mile(s):0
Sky conditions: mostly cloudy
Temperature: 62.1 F (16.7 C)
Dew Point: 46.9 F (8.3 C)
Relative Humidity: 57%
Pressure (altimeter): 29.99 in. Hg (1015 hPa)
Pressure tendency: 0.02 inches (0.8 hPa) higher than three hours ago
ob: KDET 222353Z VRB03KT 10SM FEW070 SCT085 BKN100 17/08 A2999 RMK AO2 SLP155 T01670083 10206 20161 51008
cycle: 0

Station Type Date Time Source
KDET TAF 2021/06/22 19:15 UTC NOAA

TAF
AMD KDET 221913Z 2219/2318 23011KT P6SM BKN060
TEMPO 2221/2223 6SM -SHRA OVC045
FM230200 23006KT P6SM FEW080
FM231200 22010KT P6SM BKN060
FM231700 21010KT P6SM OVC050

Example: see airport list